createdAt,value
2022-12-29T00:01:38.340Z,8.40
2022-12-29T00:04:25.774Z,8.40
2022-12-29T00:07:14.323Z,8.40
2022-12-29T00:10:01.372Z,8.50
2022-12-29T00:13:05.883Z,8.50
2022-12-29T00:15:53.189Z,8.50
2022-12-29T00:18:40.276Z,8.50
2022-12-29T00:21:44.736Z,8.50
2022-12-29T00:24:50.816Z,8.50
2022-12-29T00:27:56.377Z,8.50
2022-12-29T00:31:03.178Z,8.50
2022-12-29T00:34:08.648Z,8.70
2022-12-29T00:36:55.672Z,8.80
2022-12-29T00:40:10.152Z,8.80
2022-12-29T00:43:14.429Z,8.70
2022-12-29T00:46:01.810Z,8.80
2022-12-29T00:49:06.482Z,8.70
2022-12-29T00:51:53.465Z,8.80
2022-12-29T00:54:42.570Z,8.60
2022-12-29T00:57:31.199Z,8.70
2022-12-29T01:00:18.444Z,8.80
2022-12-29T01:03:06.084Z,8.70
2022-12-29T01:05:53.036Z,8.70
2022-12-29T01:08:40.478Z,8.60
2022-12-29T01:11:26.438Z,8.60
2022-12-29T01:14:15.241Z,8.60
2022-12-29T01:17:02.109Z,8.50
2022-12-29T01:19:49.015Z,8.60
2022-12-29T01:22:36.366Z,8.60
2022-12-29T01:25:23.501Z,8.60
2022-12-29T01:28:10.379Z,8.50
2022-12-29T01:31:02.209Z,8.60
2022-12-29T01:33:49.632Z,8.60
2022-12-29T01:36:37.009Z,8.70
2022-12-29T01:39:24.288Z,8.60
2022-12-29T01:42:18.495Z,8.60
2022-12-29T01:45:10.864Z,8.60
2022-12-29T01:48:01.106Z,8.60
2022-12-29T01:50:54.287Z,8.70
2022-12-29T01:53:41.363Z,8.60
2022-12-29T01:56:28.973Z,8.70
2022-12-29T01:59:20.503Z,8.60
2022-12-29T02:02:09.780Z,8.50
2022-12-29T02:05:04.462Z,8.50
2022-12-29T02:07:54.115Z,8.40
2022-12-29T02:10:42.903Z,8.40
2022-12-29T02:13:30.613Z,8.40
2022-12-29T02:16:36.496Z,8.30
2022-12-29T02:20:04.076Z,8.50
2022-12-29T02:23:06.573Z,8.60
2022-12-29T02:26:14.344Z,8.60
2022-12-29T02:29:45.081Z,8.50
2022-12-29T02:32:46.207Z,8.50
2022-12-29T02:35:43.991Z,8.50
2022-12-29T02:38:48.893Z,8.40
2022-12-29T02:41:44.477Z,8.40
2022-12-29T02:44:41.993Z,8.40
2022-12-29T02:47:38.530Z,8.40
2022-12-29T02:50:28.943Z,8.40
2022-12-29T02:53:39.788Z,8.20
2022-12-29T02:56:26.372Z,8.40
2022-12-29T02:59:14.901Z,8.30
2022-12-29T03:02:21.390Z,8.30
2022-12-29T03:05:24.567Z,8.30
2022-12-29T03:08:22.214Z,8.30
2022-12-29T03:11:28.166Z,8.20
2022-12-29T03:14:37.865Z,8.20
2022-12-29T03:17:31.316Z,8.30
2022-12-29T03:20:27.625Z,8.40
2022-12-29T03:23:16.371Z,8.40
2022-12-29T03:26:09.106Z,8.30
2022-12-29T03:29:00.195Z,8.20
2022-12-29T03:31:48.435Z,8.20
2022-12-29T03:34:37.500Z,8.20
2022-12-29T03:37:30.277Z,8.10
2022-12-29T03:40:18.757Z,8.20
2022-12-29T03:43:07.082Z,8.10
2022-12-29T03:45:54.853Z,8.00
2022-12-29T03:48:42.083Z,8.00
2022-12-29T03:51:29.383Z,7.90
2022-12-29T03:54:17.815Z,7.90
2022-12-29T03:57:04.876Z,7.90
2022-12-29T03:59:51.667Z,7.90
2022-12-29T04:02:38.947Z,7.80
2022-12-29T04:05:26.189Z,7.90
2022-12-29T04:08:13.426Z,7.80
2022-12-29T04:11:03.133Z,7.90
2022-12-29T04:13:50.345Z,7.80
2022-12-29T04:16:39.918Z,7.80
2022-12-29T04:19:27.331Z,8.00
2022-12-29T04:22:14.396Z,8.00
2022-12-29T04:25:01.428Z,8.00
2022-12-29T04:27:49.724Z,8.00
2022-12-29T04:30:36.668Z,8.00
2022-12-29T04:33:24.509Z,8.00
2022-12-29T04:36:11.627Z,8.00
2022-12-29T04:38:58.769Z,7.90
2022-12-29T04:41:45.887Z,8.00
2022-12-29T04:44:34.065Z,7.90
2022-12-29T04:47:22.202Z,7.90
2022-12-29T04:50:10.456Z,7.80
2022-12-29T04:52:57.784Z,7.70
2022-12-29T04:55:45.070Z,7.60
2022-12-29T04:58:32.067Z,7.50
2022-12-29T05:01:20.661Z,7.40
2022-12-29T05:04:07.771Z,7.40
2022-12-29T05:06:55.220Z,7.40
2022-12-29T05:09:42.411Z,7.40
2022-12-29T05:12:32.705Z,7.40
2022-12-29T05:15:19.982Z,7.30
2022-12-29T05:18:08.232Z,7.50
2022-12-29T05:20:55.196Z,7.50
2022-12-29T05:23:42.019Z,7.50
2022-12-29T05:26:29.056Z,7.50
2022-12-29T05:29:15.860Z,7.60
2022-12-29T05:32:05.850Z,7.60
2022-12-29T05:34:54.141Z,7.70
2022-12-29T05:37:41.411Z,7.80
2022-12-29T05:40:28.528Z,7.90
2022-12-29T05:43:16.971Z,7.90
2022-12-29T05:46:06.327Z,7.90
2022-12-29T05:48:53.672Z,8.00
2022-12-29T05:51:41.925Z,7.90
2022-12-29T05:54:29.648Z,8.00
2022-12-29T05:57:16.533Z,8.00
2022-12-29T06:00:03.751Z,8.00
2022-12-29T06:02:51.253Z,8.10
2022-12-29T06:05:39.755Z,8.10
2022-12-29T06:08:28.612Z,8.10
2022-12-29T06:11:15.813Z,8.00
2022-12-29T06:14:02.520Z,8.10
2022-12-29T06:16:49.756Z,8.10
2022-12-29T06:19:36.935Z,8.00
2022-12-29T06:22:23.845Z,8.10
2022-12-29T06:25:12.561Z,8.20
2022-12-29T06:27:59.907Z,8.20
2022-12-29T06:30:47.510Z,8.20
2022-12-29T06:33:34.496Z,8.20
2022-12-29T06:36:21.742Z,8.20
2022-12-29T06:39:09.026Z,8.20
2022-12-29T06:41:57.593Z,8.10
2022-12-29T06:44:46.945Z,8.10
2022-12-29T06:47:34.071Z,8.30
2022-12-29T06:50:21.438Z,8.20
2022-12-29T06:53:08.929Z,8.20
2022-12-29T06:55:57.669Z,8.10
2022-12-29T06:58:45.995Z,8.00
2022-12-29T07:01:33.349Z,8.10
2022-12-29T07:04:20.957Z,8.30
2022-12-29T07:07:08.129Z,8.20
2022-12-29T07:09:55.372Z,8.30
2022-12-29T07:12:42.779Z,8.40
2022-12-29T07:15:31.504Z,8.40
2022-12-29T07:18:18.639Z,8.50
2022-12-29T07:21:06.518Z,8.60
2022-12-29T07:23:53.867Z,8.50
2022-12-29T07:26:40.494Z,8.60
2022-12-29T07:29:27.772Z,8.60
2022-12-29T07:32:16.388Z,8.60
2022-12-29T07:35:04.975Z,8.60
2022-12-29T07:37:52.154Z,8.70
2022-12-29T07:40:39.740Z,8.70
2022-12-29T07:43:26.621Z,8.70
2022-12-29T07:46:55.623Z,8.80
2022-12-29T07:49:22.787Z,8.90
2022-12-29T07:52:09.886Z,8.80
2022-12-29T07:54:57.083Z,8.80
2022-12-29T07:57:44.064Z,8.80
2022-12-29T08:00:31.038Z,8.80
2022-12-29T08:03:18.078Z,8.80
2022-12-29T08:06:07.275Z,8.70
2022-12-29T08:08:54.472Z,8.80
2022-12-29T08:11:41.566Z,8.70
2022-12-29T08:14:28.698Z,8.60
2022-12-29T08:17:15.834Z,8.60
2022-12-29T08:20:03.445Z,8.50
2022-12-29T08:22:52.929Z,8.50
2022-12-29T08:25:40.047Z,8.40
2022-12-29T08:28:27.319Z,8.40
2022-12-29T08:31:14.717Z,8.40
2022-12-29T08:34:04.374Z,8.30
2022-12-29T08:36:51.831Z,8.20
2022-12-29T08:39:40.197Z,8.20
2022-12-29T08:42:32.030Z,8.00
2022-12-29T08:45:19.089Z,7.90
2022-12-29T08:48:06.700Z,7.90
2022-12-29T08:50:53.921Z,7.80
2022-12-29T08:53:41.462Z,7.70
2022-12-29T08:56:30.292Z,7.60
2022-12-29T08:59:17.135Z,7.50
2022-12-29T09:02:04.154Z,7.50
2022-12-29T09:04:51.686Z,7.50
2022-12-29T09:07:39.045Z,7.60
2022-12-29T09:10:26.567Z,7.60
2022-12-29T09:13:16.160Z,7.70
2022-12-29T09:16:03.448Z,7.80
2022-12-29T09:18:50.957Z,7.90
2022-12-29T09:21:38.436Z,8.00
2022-12-29T09:24:26.324Z,8.10
2022-12-29T09:27:13.901Z,8.10
2022-12-29T09:30:02.505Z,8.10
2022-12-29T09:32:55.030Z,8.10
2022-12-29T09:35:45.502Z,8.10
2022-12-29T09:38:32.805Z,8.10
2022-12-29T09:41:26.572Z,8.00
2022-12-29T09:44:23.014Z,7.90
2022-12-29T09:47:15.531Z,7.90
2022-12-29T09:50:06.935Z,7.90
2022-12-29T09:53:01.176Z,7.90
2022-12-29T09:55:52.513Z,7.90
2022-12-29T09:58:43.893Z,7.90
2022-12-29T10:01:35.028Z,7.90
2022-12-29T10:04:23.611Z,8.00
2022-12-29T10:07:29.531Z,8.00
2022-12-29T10:10:28.372Z,8.00
2022-12-29T10:13:30.525Z,8.00
2022-12-29T10:16:27.672Z,8.00
2022-12-29T10:19:33.132Z,8.00
2022-12-29T10:22:32.043Z,8.00
2022-12-29T10:25:21.309Z,7.90
2022-12-29T10:28:18.412Z,7.90
2022-12-29T10:31:10.533Z,7.90
2022-12-29T10:34:04.242Z,7.80
2022-12-29T10:37:01.225Z,7.80
2022-12-29T10:39:51.866Z,7.80
2022-12-29T10:42:44.468Z,7.90
2022-12-29T10:45:33.723Z,7.90
2022-12-29T10:48:30.073Z,8.00
2022-12-29T10:51:24.552Z,8.00
2022-12-29T10:54:19.710Z,8.10
2022-12-29T10:57:13.072Z,8.00
2022-12-29T11:00:00.528Z,7.90
2022-12-29T11:03:14.450Z,7.90
2022-12-29T11:06:12.985Z,7.80
2022-12-29T11:09:41.928Z,7.90
2022-12-29T11:12:37.478Z,7.90
2022-12-29T11:15:24.762Z,7.90
2022-12-29T11:18:23.984Z,7.90
2022-12-29T11:21:29.112Z,7.90
2022-12-29T11:24:24.477Z,7.90
2022-12-29T11:27:17.096Z,7.80
2022-12-29T11:30:05.020Z,7.80
2022-12-29T11:32:53.753Z,7.80
2022-12-29T11:35:44.611Z,7.80
2022-12-29T11:38:37.300Z,7.80
2022-12-29T11:41:28.440Z,8.00
2022-12-29T11:44:15.986Z,8.10
2022-12-29T11:47:03.106Z,8.10
2022-12-29T11:49:53.278Z,8.10
2022-12-29T11:52:41.516Z,8.00
2022-12-29T11:55:29.995Z,8.00
2022-12-29T11:58:18.956Z,8.00
2022-12-29T12:01:09.408Z,8.10
2022-12-29T12:04:03.587Z,8.10
2022-12-29T12:06:58.148Z,8.10
2022-12-29T12:09:52.363Z,8.10
2022-12-29T12:12:46.979Z,8.20
2022-12-29T12:15:45.845Z,8.10
2022-12-29T12:18:41.816Z,8.10
2022-12-29T12:21:40.466Z,8.10
2022-12-29T12:24:42.081Z,8.00
2022-12-29T12:27:35.083Z,8.00
2022-12-29T12:30:24.307Z,8.10
2022-12-29T12:33:20.479Z,8.00
2022-12-29T12:36:29.566Z,7.90
2022-12-29T12:39:27.499Z,7.90
2022-12-29T12:42:30.109Z,7.90
2022-12-29T12:45:34.515Z,7.90
2022-12-29T12:48:41.162Z,8.00
2022-12-29T12:51:37.660Z,8.10
2022-12-29T12:54:44.525Z,8.20
2022-12-29T12:57:46.615Z,8.20
2022-12-29T13:00:43.947Z,8.30
2022-12-29T13:03:47.237Z,8.40
2022-12-29T13:06:48.589Z,8.40
2022-12-29T13:10:04.969Z,8.40
2022-12-29T13:12:58.095Z,8.40
2022-12-29T13:15:51.713Z,8.40
2022-12-29T13:18:48.921Z,8.30
2022-12-29T13:21:57.437Z,8.20
2022-12-29T13:24:55.915Z,8.20
2022-12-29T13:27:51.071Z,8.20
2022-12-29T13:30:47.845Z,8.20
2022-12-29T13:33:44.331Z,8.30
2022-12-29T13:36:39.101Z,8.20
2022-12-29T13:39:29.288Z,8.20
2022-12-29T13:42:16.379Z,8.20
2022-12-29T13:45:06.511Z,8.10
2022-12-29T13:47:59.413Z,8.00
2022-12-29T13:50:53.457Z,7.90
2022-12-29T13:53:53.002Z,7.90
2022-12-29T13:56:44.648Z,7.90
2022-12-29T13:59:45.026Z,7.90
2022-12-29T14:02:40.227Z,7.90
2022-12-29T14:05:33.177Z,8.00
2022-12-29T14:08:21.814Z,8.00
2022-12-29T14:11:12.139Z,8.00
2022-12-29T14:14:00.041Z,8.00
2022-12-29T14:16:47.106Z,8.00
2022-12-29T14:19:37.077Z,7.90
2022-12-29T14:22:32.678Z,7.90
2022-12-29T14:25:56.847Z,7.90
2022-12-29T14:28:45.920Z,7.90
2022-12-29T14:31:42.566Z,7.90
2022-12-29T14:34:51.824Z,7.90
2022-12-29T14:37:40.390Z,7.90
2022-12-29T14:40:29.023Z,7.90
2022-12-29T14:43:26.279Z,8.00
2022-12-29T14:46:13.279Z,8.00
2022-12-29T14:49:02.289Z,8.00
2022-12-29T14:51:54.911Z,8.00
2022-12-29T14:55:01.417Z,8.10
2022-12-29T14:57:53.234Z,8.10
2022-12-29T15:00:43.459Z,8.10
2022-12-29T15:03:34.028Z,8.10
2022-12-29T15:06:23.392Z,8.10
2022-12-29T15:09:22.101Z,8.10
2022-12-29T15:12:18.448Z,8.10
2022-12-29T15:15:20.595Z,8.00
2022-12-29T15:18:25.821Z,8.00
2022-12-29T15:21:17.136Z,7.90
2022-12-29T15:24:05.830Z,7.90
2022-12-29T15:26:55.077Z,7.80
2022-12-29T15:29:44.617Z,7.80
2022-12-29T15:32:42.172Z,7.80
2022-12-29T15:35:34.003Z,7.80
2022-12-29T15:38:32.178Z,7.80
2022-12-29T15:41:59.221Z,7.80
2022-12-29T15:44:47.264Z,7.80
2022-12-29T15:47:34.490Z,7.80
2022-12-29T15:50:27.249Z,7.80
2022-12-29T15:53:25.792Z,7.80
2022-12-29T15:56:13.487Z,7.80
2022-12-29T15:59:01.313Z,7.80
2022-12-29T16:01:48.830Z,7.70
2022-12-29T16:04:48.707Z,7.60
2022-12-29T16:07:55.328Z,7.50
2022-12-29T16:10:45.468Z,7.50
2022-12-29T16:13:39.954Z,7.50
2022-12-29T16:16:30.719Z,7.50
2022-12-29T16:19:24.766Z,7.50
2022-12-29T16:22:14.788Z,7.50
2022-12-29T16:25:05.882Z,7.50
2022-12-29T16:27:55.442Z,7.50
2022-12-29T16:30:43.116Z,7.50
2022-12-29T16:33:46.595Z,7.50
2022-12-29T16:36:35.688Z,7.40
2022-12-29T16:39:35.688Z,7.40
2022-12-29T16:42:52.528Z,7.40
2022-12-29T16:46:27.291Z,7.30
2022-12-29T16:49:22.583Z,7.30
2022-12-29T16:52:20.484Z,7.30
2022-12-29T16:55:08.419Z,7.30
2022-12-29T16:57:57.901Z,7.30
2022-12-29T17:00:49.717Z,7.20
2022-12-29T17:03:42.236Z,7.20
2022-12-29T17:06:29.327Z,7.20
2022-12-29T17:09:21.126Z,7.10
2022-12-29T17:12:13.627Z,7.10
2022-12-29T17:15:02.935Z,7.10
2022-12-29T17:17:53.829Z,7.10
2022-12-29T17:20:45.720Z,7.00
2022-12-29T17:23:35.089Z,7.00
2022-12-29T17:26:22.196Z,7.00
2022-12-29T17:29:10.456Z,6.90
2022-12-29T17:31:57.506Z,7.00
2022-12-29T17:34:45.226Z,6.90
2022-12-29T17:37:36.334Z,7.00
2022-12-29T17:40:25.825Z,7.00
2022-12-29T17:43:16.036Z,7.00
2022-12-29T17:46:03.299Z,7.00
2022-12-29T17:48:53.820Z,7.10
2022-12-29T17:51:41.511Z,7.10
2022-12-29T17:54:36.759Z,7.10
2022-12-29T17:57:43.377Z,7.10
2022-12-29T18:00:37.571Z,7.10
2022-12-29T18:03:28.268Z,7.10
2022-12-29T18:06:15.516Z,7.10
2022-12-29T18:09:02.676Z,7.10
2022-12-29T18:11:51.090Z,7.10
2022-12-29T18:14:38.405Z,7.10
2022-12-29T18:17:25.403Z,7.10
2022-12-29T18:20:15.396Z,7.20
2022-12-29T18:23:02.918Z,7.10
2022-12-29T18:25:54.145Z,7.10
2022-12-29T18:28:43.464Z,7.10
2022-12-29T18:31:32.746Z,7.10
2022-12-29T18:34:21.473Z,7.20
2022-12-29T18:37:08.925Z,7.10
2022-12-29T18:39:57.357Z,7.20
2022-12-29T18:42:44.977Z,7.20
2022-12-29T18:45:34.606Z,7.20
2022-12-29T18:48:22.593Z,7.10
2022-12-29T18:51:17.847Z,7.10
2022-12-29T18:54:05.020Z,7.10
2022-12-29T18:56:51.961Z,7.00
2022-12-29T18:59:39.242Z,7.00
2022-12-29T19:02:28.555Z,7.00
2022-12-29T19:05:23.179Z,7.00
2022-12-29T19:08:11.088Z,6.90
2022-12-29T19:10:58.091Z,6.90
2022-12-29T19:13:46.105Z,6.80
2022-12-29T19:16:33.261Z,6.80
2022-12-29T19:19:22.082Z,6.80
2022-12-29T19:22:12.019Z,6.80
2022-12-29T19:25:00.286Z,6.80
2022-12-29T19:27:47.332Z,6.70
2022-12-29T19:30:35.012Z,6.70
2022-12-29T19:33:23.656Z,6.70
2022-12-29T19:36:17.021Z,6.70
2022-12-29T19:39:04.172Z,6.70
2022-12-29T19:41:51.031Z,6.70
2022-12-29T19:44:38.572Z,6.70
2022-12-29T19:47:31.931Z,6.60
2022-12-29T19:50:19.545Z,6.60
2022-12-29T19:53:08.478Z,6.50
2022-12-29T19:55:56.117Z,6.60
2022-12-29T19:58:47.325Z,6.60
2022-12-29T20:01:35.057Z,6.50
2022-12-29T20:04:22.117Z,6.50
2022-12-29T20:07:12.974Z,6.50
2022-12-29T20:10:07.558Z,6.50
2022-12-29T20:12:54.727Z,6.50
2022-12-29T20:15:45.148Z,6.40
2022-12-29T20:18:32.987Z,6.40
2022-12-29T20:21:22.966Z,6.40
2022-12-29T20:24:11.029Z,6.30
2022-12-29T20:26:59.538Z,6.30
2022-12-29T20:29:46.550Z,6.20
2022-12-29T20:32:35.771Z,6.20
2022-12-29T20:35:23.151Z,6.10
2022-12-29T20:38:10.534Z,6.10
2022-12-29T20:40:58.071Z,6.10
2022-12-29T20:43:46.670Z,6.10
2022-12-29T20:46:41.193Z,6.10
2022-12-29T20:49:30.628Z,6.00
2022-12-29T20:52:20.504Z,6.00
2022-12-29T20:55:08.013Z,6.00
2022-12-29T20:58:23.215Z,5.90
2022-12-29T21:01:06.395Z,5.90
2022-12-29T21:03:53.774Z,5.80
2022-12-29T21:06:40.707Z,5.90
2022-12-29T21:09:28.986Z,5.80
2022-12-29T21:12:16.100Z,5.70
2022-12-29T21:15:03.777Z,5.70
2022-12-29T21:17:52.951Z,5.70
2022-12-29T21:20:40.149Z,5.60
2022-12-29T21:23:27.689Z,5.60
2022-12-29T21:26:17.778Z,5.60
2022-12-29T21:29:05.236Z,5.60
2022-12-29T21:31:52.526Z,5.60
2022-12-29T21:34:41.107Z,5.50
2022-12-29T21:37:29.446Z,5.50
2022-12-29T21:40:16.394Z,5.50
2022-12-29T21:43:03.812Z,5.50
2022-12-29T21:45:51.479Z,5.40
2022-12-29T21:48:38.863Z,5.40
2022-12-29T21:51:44.724Z,5.40
2022-12-29T21:54:49.943Z,5.40
2022-12-29T21:57:55.681Z,5.40
2022-12-29T22:01:08.727Z,5.30
2022-12-29T22:04:13.066Z,5.30
2022-12-29T22:07:19.808Z,5.20
2022-12-29T22:10:25.472Z,5.10
2022-12-29T22:13:12.430Z,5.00
2022-12-29T22:15:59.767Z,4.90
2022-12-29T22:18:47.060Z,4.80
2022-12-29T22:21:34.560Z,4.80
2022-12-29T22:24:23.343Z,4.70
2022-12-29T22:27:10.878Z,4.60
2022-12-29T22:29:58.147Z,4.60
2022-12-29T22:32:45.663Z,4.60
2022-12-29T22:35:32.624Z,4.60
2022-12-29T22:38:19.467Z,4.60
2022-12-29T22:41:08.073Z,4.60
2022-12-29T22:43:56.025Z,4.60
2022-12-29T22:46:43.192Z,4.60
2022-12-29T22:49:30.390Z,4.50
2022-12-29T22:52:17.584Z,4.50
2022-12-29T22:55:07.171Z,4.40
2022-12-29T22:57:55.690Z,4.40
2022-12-29T23:00:42.847Z,4.40
2022-12-29T23:03:30.166Z,4.40
2022-12-29T23:06:18.635Z,4.30
2022-12-29T23:09:08.203Z,4.40
2022-12-29T23:11:55.693Z,4.30
2022-12-29T23:14:43.851Z,4.30
2022-12-29T23:17:31.539Z,4.40
2022-12-29T23:20:19.174Z,4.30
2022-12-29T23:23:06.053Z,4.40
2022-12-29T23:25:53.234Z,4.30
2022-12-29T23:28:42.537Z,4.40
2022-12-29T23:31:32.783Z,4.40
2022-12-29T23:34:19.831Z,4.40
2022-12-29T23:37:07.121Z,4.40
2022-12-29T23:39:54.644Z,4.50
2022-12-29T23:42:41.878Z,4.30
2022-12-29T23:45:29.120Z,4.20
2022-12-29T23:48:17.765Z,4.10
2022-12-29T23:51:07.037Z,4.00
2022-12-29T23:53:54.463Z,4.00
2022-12-29T23:56:41.695Z,4.00
2022-12-29T23:59:28.821Z,3.90
